Fort Pierce, FL

5:03 AM EST on December 09, 2016 (GMT -0500)
Saint Lucie County International

Weather History for KFPR - December, 2013

Change the Weather History Date:

Sunday, December 1, 2013

  Actual Average Record
Temperature  
Mean Temperature 67 °F -  
Max Temperature 70 °F 77 °F 86 °F (1977)
Min Temperature 64 °F 56 °F 37 °F (1957)
Cooling Degree Days 2    
Growing Degree Days 17 (Base 50)    
Moisture  
Dew Point 65 °F    
Average Humidity 90    
Maximum Humidity 94    
Minimum Humidity 83    
Precipitation  
Precipitation 1.16 in - - ()
Sea Level Pressure  
Sea Level Pressure 30.08 in    
Wind  
Wind Speed 5 mph (North)    
Max Wind Speed 16 mph    
Max Gust Speed 22 mph    
Visibility 5 miles    
Events Rain    
Averages and records for this station are not official NWS values.
T = Trace of Precipitation, MM = Missing Value Source: NWS Daily Summary

Daily Weather History Graph

Daily Weather History Graph

Search for Another Location

Airport or City:

Trip Planner

Search our weather history database for the weather conditions in past years. The results will help you decide how hot, cold, wet, or windy it might be!

Date:

Astronomy

Dec. 01, 2013 Rise Set
Actual Time 6:54 AM EST 5:26 PM EST
Civil Twilight 6:29 AM EST 5:51 PM EST
Nautical Twilight 6:00 AM EST 6:20 PM EST
Astronomical Twilight 5:32 AM EST 6:49 PM EST
Moon 5:17 AM EST (12/1) 4:29 PM EST (12/1)
Length of Visible Light 11h 22m
Length of Day
10h 31m
Waning Crescent, 2% of the Moon is Illuminated
Dec 1
Waning Crescent
Dec 2
New
Dec 9
First Quarter
Dec 17
Full
Dec 25
Last Quarter

Hourly Weather History & Observations

Time (EST) Temp. Dew Point Humidity Pressure Visibility Wind Dir Wind Speed Gust Speed Precip Events Conditions
12:53 AM 66.9 °F 64.0 °F 90% 30.13 in 10.0 mi North 4.6 mph - N/A   Mostly Cloudy
1:10 AM 68.0 °F 64.4 °F 88% 30.13 in 9.0 mi Calm Calm - N/A   Mostly Cloudy
1:18 AM 68.0 °F 64.4 °F 88% 30.12 in 8.0 mi East 6.9 mph - 0.00 in Rain Light Rain
1:53 AM 69.1 °F 64.9 °F 87% 30.10 in 10.0 mi East 10.4 mph - 0.01 in   Overcast
2:53 AM 69.1 °F 64.9 °F 87% 30.09 in 10.0 mi East 16.1 mph 21.9 mph N/A   Overcast
3:53 AM 68.0 °F 64.9 °F 90% 30.08 in 5.0 mi East 8.1 mph - 0.00 in Rain Light Rain
4:47 AM 69.8 °F 64.4 °F 83% 30.08 in 9.0 mi East 13.8 mph 19.6 mph 0.00 in   Overcast
4:53 AM 69.1 °F 66.0 °F 90% 30.09 in 4.0 mi East 12.7 mph 19.6 mph 0.01 in Rain Rain
5:53 AM 68.0 °F 64.9 °F 90% 30.09 in 10.0 mi Calm Calm - 0.01 in   Overcast
6:40 AM 68.0 °F 66.2 °F 94% 30.10 in 10.0 mi NW 4.6 mph - 0.00 in   Overcast
6:48 AM 68.0 °F 66.2 °F 94% 30.10 in 1.8 mi West 4.6 mph - 0.09 in Rain Rain
6:53 AM 68.0 °F 66.0 °F 93% 30.11 in 1.0 mi Calm Calm - 0.16 in Rain Heavy Rain
7:00 AM 69.8 °F 66.2 °F 88% 30.11 in 3.0 mi Calm Calm - 0.01 in Rain Rain
7:22 AM 69.8 °F 66.2 °F 88% 30.11 in 3.0 mi Calm Calm - 0.01 in   Overcast
7:37 AM 69.8 °F 66.2 °F 88% 30.12 in 7.0 mi Calm Calm - 0.01 in Rain Light Rain
7:53 AM 68.0 °F 66.0 °F 93% 30.12 in 9.0 mi WNW 3.5 mph - 0.01 in   Overcast
8:53 AM 69.1 °F 66.0 °F 90% 30.13 in 9.0 mi NW 5.8 mph - N/A   Overcast
9:00 AM 68.0 °F 66.2 °F 94% 30.13 in 6.0 mi NW 5.8 mph - 0.00 in Rain Rain
9:40 AM 68.0 °F 66.2 °F 94% 30.13 in 1.0 mi WNW 5.8 mph - 0.34 in Rain Heavy Rain
9:51 AM 69.8 °F 66.2 °F 88% 30.13 in 2.0 mi NW 8.1 mph - 0.40 in Rain Rain
9:53 AM 69.1 °F 66.9 °F 93% 30.13 in 2.0 mi NW 6.9 mph - 0.40 in Rain Light Rain
9:55 AM 69.8 °F 66.2 °F 88% 30.13 in 3.0 mi NW 6.9 mph - 0.00 in Rain Light Rain
10:06 AM 69.8 °F 66.2 °F 88% 30.13 in 2.0 mi Variable 5.8 mph - 0.00 in Rain Light Rain
10:23 AM 69.8 °F 66.2 °F 88% 30.13 in 0.8 mi West 8.1 mph - 0.10 in Rain Heavy Rain
10:31 AM 69.8 °F 66.2 °F 88% 30.13 in 1.0 mi WNW 4.6 mph - 0.16 in Rain Heavy Rain
10:53 AM 69.1 °F 66.9 °F 93% 30.13 in 2.0 mi NW 5.8 mph - 0.25 in Rain Light Rain
10:56 AM 69.8 °F 66.2 °F 88% 30.13 in 3.0 mi NW 5.8 mph - 0.01 in Rain Light Rain
11:51 AM 69.8 °F 66.2 °F 88% 30.12 in 3.0 mi WNW 5.8 mph - 0.01 in Rain Light Rain
11:53 AM 69.1 °F 66.9 °F 93% 30.12 in 3.0 mi WNW 6.9 mph - 0.01 in Rain Light Rain
12:02 PM 69.8 °F 66.2 °F 88% 30.11 in 2.5 mi WNW 5.8 mph - 0.00 in Rain Light Rain
12:36 PM 69.8 °F 66.2 °F 88% 30.09 in 3.0 mi Calm Calm - 0.01 in Rain Light Rain
12:53 PM 70.0 °F 66.0 °F 87% 30.07 in 5.0 mi Calm Calm - 0.02 in Rain Light Rain
1:00 PM 69.8 °F 66.2 °F 88% 30.07 in 3.0 mi North 3.5 mph - 0.00 in Rain Light Rain
1:08 PM 69.8 °F 66.2 °F 88% 30.07 in 2.0 mi North 3.5 mph - 0.01 in Rain Light Rain
1:13 PM 69.8 °F 66.2 °F 88% 30.06 in 1.8 mi NE 3.5 mph - 0.02 in Rain Rain
1:20 PM 69.8 °F 66.2 °F 88% 30.06 in 3.0 mi NNE 4.6 mph - 0.02 in Rain Light Rain
1:53 PM 70.0 °F 66.0 °F 87% 30.05 in 10.0 mi North 5.8 mph - 0.02 in   Overcast
2:30 PM 69.8 °F 66.2 °F 88% 30.04 in 2.0 mi Variable 4.6 mph - 0.00 in Rain Light Rain
2:53 PM 69.1 °F 66.0 °F 90% 30.04 in 1.5 mi NNE 5.8 mph - 0.02 in Rain Rain
3:04 PM 69.8 °F 66.2 °F 88% 30.04 in 3.0 mi North 5.8 mph - 0.01 in Rain Light Rain
3:14 PM 68.0 °F 66.2 °F 94% 30.04 in 2.0 mi North 5.8 mph - 0.01 in Rain Light Rain
3:23 PM 68.0 °F 64.4 °F 88% 30.04 in 1.2 mi NNW 4.6 mph - 0.05 in Rain Heavy Rain
3:53 PM 68.0 °F 66.0 °F 93% 30.03 in 2.5 mi North 4.6 mph - 0.13 in Rain Light Rain
4:00 PM 68.0 °F 66.2 °F 94% 30.04 in 2.0 mi North 8.1 mph - 0.01 in Rain Light Rain
4:09 PM 68.0 °F 64.4 °F 88% 30.04 in 2.0 mi North 3.5 mph - 0.02 in Rain Light Rain
4:53 PM 66.9 °F 64.9 °F 93% 30.03 in 2.0 mi North 6.9 mph - 0.07 in Rain Light Rain
5:30 PM 66.2 °F 64.4 °F 94% 30.03 in 1.0 mi North 8.1 mph - 0.00 in Rain Light Rain
5:53 PM 66.0 °F 64.0 °F 93% 30.04 in 1.0 mi North 5.8 mph - 0.01 in Rain Light Rain
6:00 PM 66.2 °F 64.4 °F 94% 30.04 in 4.0 mi North 5.8 mph - 0.00 in Rain Light Rain
6:07 PM 66.2 °F 62.6 °F 88% 30.04 in 2.0 mi North 4.6 mph - 0.00 in Rain Light Rain
6:53 PM 64.9 °F 63.0 °F 93% 30.04 in 9.0 mi North 4.6 mph - 0.01 in   Overcast
7:28 PM 66.2 °F 64.4 °F 94% 30.04 in 2.5 mi ENE 8.1 mph - 0.01 in Rain Light Rain
7:47 PM 66.2 °F 64.4 °F 94% 30.04 in 8.0 mi ENE 5.8 mph - 0.01 in   Overcast
7:53 PM 66.0 °F 64.0 °F 93% 30.04 in 8.0 mi ENE 5.8 mph - 0.01 in   Overcast
8:00 PM 66.2 °F 64.4 °F 94% 30.04 in 7.0 mi East 5.8 mph - 0.00 in Rain Light Rain
8:08 PM 66.2 °F 64.4 °F 94% 30.04 in 9.0 mi East 5.8 mph - 0.00 in Rain Light Rain
8:53 PM 66.9 °F 64.0 °F 90% 30.03 in 10.0 mi Calm Calm - 0.01 in   Overcast
9:00 PM 66.2 °F 64.4 °F 94% 30.03 in 10.0 mi Calm Calm - N/A   Overcast
9:53 PM 66.0 °F 64.0 °F 93% 30.01 in 10.0 mi Calm Calm - N/A   Overcast
10:53 PM 64.9 °F 63.0 °F 93% 29.99 in 10.0 mi Calm Calm - N/A   Scattered Clouds
11:53 PM 64.9 °F 63.0 °F 93% 29.97 in 10.0 mi NW 3.5 mph - N/A   Overcast